createdAt,value
2022-12-27T00:01:52.804Z,7.15
2022-12-27T00:04:21.084Z,7.12
2022-12-27T00:06:49.197Z,7.06
2022-12-27T00:09:18.255Z,7.05
2022-12-27T00:11:46.477Z,6.98
2022-12-27T00:14:15.773Z,6.95
2022-12-27T00:16:44.876Z,6.92
2022-12-27T00:19:12.850Z,6.88
2022-12-27T00:21:42.795Z,6.84
2022-12-27T00:24:12.337Z,6.82
2022-12-27T00:26:42.093Z,6.80
2022-12-27T00:29:10.902Z,6.79
2022-12-27T00:31:40.666Z,6.80
2022-12-27T00:34:09.030Z,6.77
2022-12-27T00:36:37.146Z,6.75
2022-12-27T00:39:05.934Z,6.72
2022-12-27T00:41:33.991Z,6.70
2022-12-27T00:44:02.261Z,6.58
2022-12-27T00:46:30.623Z,6.62
2022-12-27T00:48:59.894Z,6.53
2022-12-27T00:51:28.176Z,6.50
2022-12-27T00:53:58.108Z,6.44
2022-12-27T00:56:27.342Z,6.46
2022-12-27T00:58:56.163Z,6.45
2022-12-27T01:01:26.488Z,6.42
2022-12-27T01:03:54.705Z,6.35
2022-12-27T01:06:30.919Z,6.31
2022-12-27T01:08:59.947Z,6.27
2022-12-27T01:11:29.705Z,6.14
2022-12-27T01:13:58.598Z,6.11
2022-12-27T01:16:28.077Z,6.09
2022-12-27T01:18:57.490Z,5.99
2022-12-27T01:21:28.074Z,5.92
2022-12-27T01:23:56.665Z,5.86
2022-12-27T01:26:25.308Z,5.84
2022-12-27T01:28:54.646Z,5.74
2022-12-27T01:31:26.681Z,5.65
2022-12-27T01:33:56.603Z,5.64
2022-12-27T01:36:28.057Z,5.59
2022-12-27T01:38:56.848Z,5.53
2022-12-27T01:41:44.984Z,5.46
2022-12-27T01:44:52.483Z,5.41
2022-12-27T01:47:28.557Z,5.32
2022-12-27T01:50:02.150Z,5.28
2022-12-27T01:52:38.720Z,5.28
2022-12-27T01:55:13.916Z,5.20
2022-12-27T01:57:42.637Z,5.26
2022-12-27T02:00:12.063Z,5.23
2022-12-27T02:02:42.364Z,5.13
2022-12-27T02:05:14.470Z,5.14
2022-12-27T02:07:51.971Z,5.13
2022-12-27T02:10:21.359Z,5.13
2022-12-27T02:12:49.679Z,5.06
2022-12-27T02:15:17.661Z,5.07
2022-12-27T02:17:45.901Z,5.09
2022-12-27T02:20:17.147Z,5.15
2022-12-27T02:23:39.651Z,5.19
2022-12-27T02:26:40.829Z,5.21
2022-12-27T02:29:38.111Z,5.12
2022-12-27T02:32:10.735Z,5.14
2022-12-27T02:34:50.357Z,5.10
2022-12-27T02:37:21.084Z,5.11
2022-12-27T02:39:51.584Z,5.01
2022-12-27T02:42:38.285Z,4.98
2022-12-27T02:45:35.619Z,4.91
2022-12-27T02:48:21.271Z,4.89
2022-12-27T02:51:20.392Z,4.87
2022-12-27T02:54:00.474Z,4.84
2022-12-27T02:56:57.118Z,4.81
2022-12-27T03:00:00.007Z,4.77
2022-12-27T03:02:54.588Z,4.69
2022-12-27T03:05:30.922Z,4.66
2022-12-27T03:08:06.031Z,4.62
2022-12-27T03:10:55.476Z,4.64
2022-12-27T03:13:49.765Z,4.63
2022-12-27T03:16:24.280Z,4.60
2022-12-27T03:19:04.285Z,4.60
2022-12-27T03:21:52.122Z,4.60
2022-12-27T03:24:41.933Z,4.62
2022-12-27T03:27:22.668Z,4.62
2022-12-27T03:30:12.092Z,4.59
2022-12-27T03:33:03.440Z,4.55
2022-12-27T03:35:38.201Z,4.56
2022-12-27T03:38:08.115Z,4.55
2022-12-27T03:41:05.212Z,4.55
2022-12-27T03:43:33.803Z,4.53
2022-12-27T03:46:28.876Z,4.54
2022-12-27T03:49:06.874Z,4.58
2022-12-27T03:51:41.806Z,4.54
2022-12-27T03:54:16.340Z,4.54
2022-12-27T03:56:44.604Z,4.55
2022-12-27T03:59:13.716Z,4.54
2022-12-27T04:01:42.472Z,4.56
2022-12-27T04:04:10.769Z,4.55
2022-12-27T04:06:40.039Z,4.58
2022-12-27T04:09:25.931Z,4.62
2022-12-27T04:12:11.131Z,4.63
2022-12-27T04:14:57.437Z,4.63
2022-12-27T04:17:42.841Z,4.59
2022-12-27T04:20:28.688Z,4.57
2022-12-27T04:23:15.748Z,4.55
2022-12-27T04:26:01.564Z,4.47
2022-12-27T04:28:47.665Z,4.47
2022-12-27T04:31:33.411Z,4.39
2022-12-27T04:34:19.564Z,4.36
2022-12-27T04:36:48.516Z,4.34
2022-12-27T04:39:18.200Z,4.34
2022-12-27T04:41:59.972Z,4.35
2022-12-27T04:45:00.077Z,4.43
2022-12-27T04:47:46.312Z,4.36
2022-12-27T04:50:40.704Z,4.38
2022-12-27T04:53:29.942Z,4.35
2022-12-27T04:55:59.987Z,4.32
2022-12-27T04:58:28.649Z,4.33
2022-12-27T05:01:16.037Z,4.32
2022-12-27T05:03:45.037Z,4.29
2022-12-27T05:06:13.051Z,4.26
2022-12-27T05:08:59.955Z,4.23
2022-12-27T05:11:47.016Z,4.24
2022-12-27T05:14:17.136Z,4.20
2022-12-27T05:16:46.118Z,4.18
2022-12-27T05:19:15.371Z,4.13
2022-12-27T05:22:06.433Z,4.11
2022-12-27T05:24:52.210Z,4.06
2022-12-27T05:27:21.874Z,4.01
2022-12-27T05:29:49.797Z,3.97
2022-12-27T05:32:17.624Z,3.97
2022-12-27T05:34:45.896Z,3.99
2022-12-27T05:37:13.859Z,3.94
2022-12-27T05:39:41.721Z,3.94
2022-12-27T05:42:09.995Z,3.93
2022-12-27T05:44:39.201Z,3.91
2022-12-27T05:47:07.062Z,3.91
2022-12-27T05:49:35.336Z,3.88
2022-12-27T05:52:03.205Z,3.86
2022-12-27T05:54:31.018Z,3.85
2022-12-27T05:56:58.858Z,3.87
2022-12-27T05:59:26.779Z,3.89
2022-12-27T06:01:57.227Z,3.82
2022-12-27T06:04:25.817Z,3.74
2022-12-27T06:06:53.653Z,3.76
2022-12-27T06:09:21.530Z,3.75
2022-12-27T06:11:50.205Z,3.74
2022-12-27T06:14:18.038Z,3.75
2022-12-27T06:16:46.289Z,3.78
2022-12-27T06:19:15.620Z,3.74
2022-12-27T06:21:43.470Z,3.76
2022-12-27T06:24:11.367Z,3.72
2022-12-27T06:26:39.821Z,3.69
2022-12-27T06:29:07.714Z,3.69
2022-12-27T06:31:36.077Z,3.67
2022-12-27T06:34:04.528Z,3.65
2022-12-27T06:36:33.826Z,3.61
2022-12-27T06:39:02.148Z,3.59
2022-12-27T06:41:30.132Z,3.56
2022-12-27T06:43:59.201Z,3.56
2022-12-27T06:46:27.240Z,3.56
2022-12-27T06:48:55.356Z,3.52
2022-12-27T06:51:23.391Z,3.45
2022-12-27T06:53:53.014Z,3.43
2022-12-27T06:56:23.993Z,3.40
2022-12-27T06:58:52.866Z,3.42
2022-12-27T07:01:22.694Z,3.40
2022-12-27T07:03:52.284Z,3.40
2022-12-27T07:06:21.414Z,3.38
2022-12-27T07:08:50.420Z,3.40
2022-12-27T07:11:21.198Z,3.38
2022-12-27T07:13:51.411Z,3.36
2022-12-27T07:16:22.182Z,3.39
2022-12-27T07:18:50.444Z,3.39
2022-12-27T07:21:20.303Z,3.35
2022-12-27T07:23:50.174Z,3.37
2022-12-27T07:26:21.679Z,3.35
2022-12-27T07:28:50.479Z,3.33
2022-12-27T07:31:23.236Z,3.36
2022-12-27T07:33:51.847Z,3.34
2022-12-27T07:36:22.315Z,3.34
2022-12-27T07:38:51.404Z,3.40
2022-12-27T07:41:21.216Z,3.38
2022-12-27T07:43:51.982Z,3.38
2022-12-27T07:46:24.658Z,3.41
2022-12-27T07:48:55.444Z,3.45
2022-12-27T07:51:25.444Z,3.47
2022-12-27T07:53:55.518Z,3.50
2022-12-27T07:56:27.832Z,3.61
2022-12-27T07:59:00.300Z,3.58
2022-12-27T08:01:51.761Z,3.54
2022-12-27T08:04:19.693Z,3.52
2022-12-27T08:06:48.256Z,3.55
2022-12-27T08:09:21.508Z,3.54
2022-12-27T08:11:51.034Z,3.57
2022-12-27T08:14:19.201Z,3.59
2022-12-27T08:16:47.466Z,3.61
2022-12-27T08:19:15.980Z,3.67
2022-12-27T08:21:43.897Z,3.63
2022-12-27T08:24:12.072Z,3.68
2022-12-27T08:26:39.984Z,3.72
2022-12-27T08:29:09.739Z,3.73
2022-12-27T08:31:40.822Z,3.77
2022-12-27T08:34:08.789Z,3.80
2022-12-27T08:36:55.293Z,3.83
2022-12-27T08:39:25.418Z,3.86
2022-12-27T08:41:54.434Z,3.93
2022-12-27T08:44:24.635Z,3.95
2022-12-27T08:46:52.780Z,3.98
2022-12-27T08:49:21.575Z,4.06
2022-12-27T08:51:50.946Z,4.05
2022-12-27T08:54:19.632Z,4.16
2022-12-27T08:56:48.617Z,4.19
2022-12-27T08:59:17.329Z,4.23
2022-12-27T09:01:46.997Z,4.26
2022-12-27T09:04:15.634Z,4.34
2022-12-27T09:06:43.875Z,4.40
2022-12-27T09:09:11.733Z,4.44
2022-12-27T09:11:40.055Z,4.51
2022-12-27T09:14:08.449Z,4.66
2022-12-27T09:16:37.164Z,4.65
2022-12-27T09:19:07.329Z,4.71
2022-12-27T09:21:35.731Z,4.82
2022-12-27T09:24:03.746Z,4.84
2022-12-27T09:26:32.456Z,4.90
2022-12-27T09:29:01.965Z,4.92
2022-12-27T09:31:30.798Z,4.99
2022-12-27T09:34:00.540Z,5.05
2022-12-27T09:36:31.119Z,5.10
2022-12-27T09:39:00.738Z,5.19
2022-12-27T09:44:34.704Z,5.33
2022-12-27T09:47:07.311Z,5.37
2022-12-27T09:49:40.245Z,5.44
2022-12-27T09:52:18.859Z,5.52
2022-12-27T09:55:02.514Z,5.61
2022-12-27T09:57:38.640Z,5.70
2022-12-27T10:00:16.492Z,5.72
2022-12-27T10:02:45.540Z,5.78
2022-12-27T10:05:22.599Z,5.85
2022-12-27T10:08:07.381Z,5.88
2022-12-27T10:10:44.920Z,5.91
2022-12-27T10:13:26.513Z,5.98
2022-12-27T10:16:03.307Z,6.07
2022-12-27T10:18:42.561Z,6.14
2022-12-27T10:21:19.300Z,6.16
2022-12-27T10:23:55.241Z,6.18
2022-12-27T10:26:25.135Z,6.24
2022-12-27T10:28:58.170Z,6.31
2022-12-27T10:31:28.394Z,6.40
2022-12-27T10:33:58.020Z,6.50
2022-12-27T10:36:36.383Z,6.58
2022-12-27T10:39:16.758Z,6.69
2022-12-27T10:42:00.164Z,6.81
2022-12-27T10:44:30.450Z,6.92
2022-12-27T10:46:58.910Z,7.02
2022-12-27T10:49:29.310Z,7.08
2022-12-27T10:52:01.086Z,7.19
2022-12-27T10:54:31.912Z,7.31
2022-12-27T10:57:20.116Z,7.29
2022-12-27T11:00:09.729Z,7.38
2022-12-27T11:02:51.552Z,7.41
2022-12-27T11:05:25.502Z,7.47
2022-12-27T11:07:54.258Z,7.48
2022-12-27T11:10:26.790Z,7.51
2022-12-27T11:13:03.601Z,7.53
2022-12-27T11:15:34.593Z,7.57
2022-12-27T11:18:10.644Z,7.59
2022-12-27T11:20:40.678Z,7.61
2022-12-27T11:23:18.402Z,7.65
2022-12-27T11:25:54.632Z,7.61
2022-12-27T11:28:38.326Z,7.59
2022-12-27T11:31:11.820Z,7.65
2022-12-27T11:33:42.884Z,7.58
2022-12-27T11:36:26.151Z,7.60
2022-12-27T11:38:59.152Z,7.58
2022-12-27T11:41:39.814Z,7.66
2022-12-27T11:44:21.461Z,7.68
2022-12-27T11:46:59.465Z,7.82
2022-12-27T11:49:35.070Z,7.81
2022-12-27T11:52:34.786Z,7.74
2022-12-27T11:55:51.359Z,7.60
2022-12-27T11:58:46.716Z,7.52
2022-12-27T12:01:48.098Z,7.48
2022-12-27T12:04:46.871Z,7.53
2022-12-27T12:07:29.218Z,7.62
2022-12-27T12:10:15.294Z,7.77
2022-12-27T12:13:25.519Z,7.92
2022-12-27T12:16:23.198Z,8.00
2022-12-27T12:19:09.062Z,8.02
2022-12-27T12:21:46.150Z,8.04
2022-12-27T12:24:37.930Z,8.07
2022-12-27T12:27:32.838Z,8.03
2022-12-27T12:30:27.059Z,8.03
2022-12-27T12:33:16.406Z,7.98
2022-12-27T12:36:09.940Z,7.94
2022-12-27T12:38:46.163Z,7.87
2022-12-27T12:41:52.598Z,7.82
2022-12-27T12:45:05.015Z,7.74
2022-12-27T12:47:54.268Z,7.70
2022-12-27T12:50:37.553Z,7.68
2022-12-27T12:53:24.546Z,7.68
2022-12-27T12:56:08.789Z,7.68
2022-12-27T12:58:50.624Z,7.65
2022-12-27T13:01:52.673Z,7.67
2022-12-27T13:04:37.709Z,7.72
2022-12-27T13:07:41.460Z,7.71
2022-12-27T13:10:40.700Z,7.75
2022-12-27T13:13:17.565Z,7.74
2022-12-27T13:15:58.302Z,7.75
2022-12-27T13:18:34.872Z,7.74
2022-12-27T13:21:18.094Z,7.72
2022-12-27T13:24:02.089Z,7.75
2022-12-27T13:26:42.115Z,7.81
2022-12-27T13:29:38.479Z,7.87
2022-12-27T13:32:18.639Z,7.83
2022-12-27T13:35:04.686Z,7.89
2022-12-27T13:37:44.205Z,8.02
2022-12-27T13:40:53.598Z,8.18
2022-12-27T13:43:52.089Z,8.27
2022-12-27T13:46:42.642Z,8.28
2022-12-27T13:49:31.975Z,8.41
2022-12-27T13:52:12.669Z,8.39
2022-12-27T13:54:59.754Z,8.43
2022-12-27T13:57:54.694Z,8.39
2022-12-27T14:00:25.192Z,8.37
2022-12-27T14:03:28.514Z,8.40
2022-12-27T14:06:35.818Z,8.34
2022-12-27T14:09:23.681Z,8.29
2022-12-27T14:12:06.062Z,8.30
2022-12-27T14:14:40.691Z,8.45
2022-12-27T14:17:31.267Z,8.32
2022-12-27T14:20:14.630Z,8.32
2022-12-27T14:23:03.595Z,8.21
2022-12-27T14:26:39.174Z,8.09
2022-12-27T14:29:40.824Z,7.97
2022-12-27T14:32:42.865Z,7.87
2022-12-27T14:35:52.131Z,7.75
2022-12-27T14:38:52.263Z,7.66
2022-12-27T14:41:44.728Z,7.60
2022-12-27T14:44:46.644Z,7.53
2022-12-27T14:47:59.086Z,7.48
2022-12-27T14:51:05.820Z,7.44
2022-12-27T14:54:07.426Z,7.40
2022-12-27T14:56:39.654Z,7.36
2022-12-27T14:59:20.726Z,7.29
2022-12-27T15:02:01.923Z,7.29
2022-12-27T15:04:59.468Z,7.26
2022-12-27T15:07:45.103Z,7.20
2022-12-27T15:10:21.893Z,7.17
2022-12-27T15:13:01.255Z,7.10
2022-12-27T15:15:47.048Z,7.06
2022-12-27T15:18:31.598Z,7.02
2022-12-27T15:21:21.585Z,6.98
2022-12-27T15:23:54.774Z,6.95
2022-12-27T15:26:31.722Z,6.97
2022-12-27T15:29:24.581Z,6.92
2022-12-27T15:32:02.707Z,6.87
2022-12-27T15:34:45.213Z,6.84
2022-12-27T15:38:01.853Z,6.82
2022-12-27T15:40:41.921Z,6.75
2022-12-27T15:43:22.885Z,6.72
2022-12-27T15:46:08.121Z,6.68
2022-12-27T15:49:06.161Z,6.64
2022-12-27T15:51:42.735Z,6.57
2022-12-27T15:54:27.266Z,6.55
2022-12-27T15:57:15.294Z,6.53
2022-12-27T15:59:48.348Z,6.45
2022-12-27T16:02:36.112Z,6.47
2022-12-27T16:05:14.188Z,6.37
2022-12-27T16:07:48.003Z,6.30
2022-12-27T16:10:50.030Z,6.25
2022-12-27T16:13:57.640Z,6.20
2022-12-27T16:16:56.035Z,6.12
2022-12-27T16:19:47.575Z,6.06
2022-12-27T16:22:27.628Z,6.01
2022-12-27T16:24:57.042Z,5.96
2022-12-27T16:27:31.637Z,5.91
2022-12-27T16:30:01.936Z,5.88
2022-12-27T16:32:31.450Z,5.88
2022-12-27T16:35:14.309Z,6.07
2022-12-27T16:37:46.476Z,5.87
2022-12-27T16:40:39.249Z,5.82
2022-12-27T16:43:52.261Z,5.77
2022-12-27T16:46:30.221Z,5.71
2022-12-27T16:49:29.621Z,5.69
2022-12-27T16:52:09.903Z,5.66
2022-12-27T16:54:53.730Z,5.66
2022-12-27T16:57:43.411Z,5.61
2022-12-27T17:00:38.175Z,5.60
2022-12-27T17:03:32.042Z,5.58
2022-12-27T17:09:28.605Z,5.56
2022-12-27T17:12:13.849Z,5.55
2022-12-27T17:14:44.314Z,5.51
2022-12-27T17:17:19.422Z,5.48
2022-12-27T17:19:53.135Z,5.49
2022-12-27T17:22:28.690Z,5.47
2022-12-27T17:25:01.227Z,5.44
2022-12-27T17:27:45.128Z,5.36
2022-12-27T17:30:23.944Z,5.33
2022-12-27T17:33:18.733Z,5.28
2022-12-27T17:36:02.480Z,5.19
2022-12-27T17:38:42.868Z,5.19
2022-12-27T17:41:41.859Z,5.19
2022-12-27T17:44:38.394Z,5.16
2022-12-27T17:47:23.143Z,5.16
2022-12-27T17:49:55.451Z,5.11
2022-12-27T17:52:49.300Z,5.05
2022-12-27T17:55:42.602Z,5.03
2022-12-27T17:58:13.025Z,4.99
2022-12-27T18:00:55.912Z,4.96
2022-12-27T18:03:30.100Z,4.91
2022-12-27T18:06:01.692Z,4.86
2022-12-27T18:08:34.025Z,4.82
2022-12-27T18:11:06.686Z,4.79
2022-12-27T18:13:40.273Z,4.77
2022-12-27T18:16:17.402Z,4.76
2022-12-27T18:18:48.881Z,4.70
2022-12-27T18:21:25.143Z,4.67
2022-12-27T18:23:57.192Z,4.65
2022-12-27T18:26:37.209Z,4.63
2022-12-27T18:29:06.084Z,4.57
2022-12-27T18:31:38.533Z,4.56
2022-12-27T18:34:12.224Z,4.53
2022-12-27T18:36:43.642Z,4.56
2022-12-27T18:39:23.276Z,4.59
2022-12-27T18:41:54.854Z,4.53
2022-12-27T18:44:27.607Z,4.51
2022-12-27T18:46:59.942Z,4.49
2022-12-27T18:49:33.829Z,4.48
2022-12-27T18:52:04.193Z,4.42
2022-12-27T18:54:41.655Z,4.39
2022-12-27T18:57:31.048Z,4.35
2022-12-27T19:00:13.756Z,4.35
2022-12-27T19:02:45.370Z,4.34
2022-12-27T19:05:16.579Z,4.32
2022-12-27T19:07:44.695Z,4.24
2022-12-27T19:10:22.144Z,4.31
2022-12-27T19:12:52.586Z,4.25
2022-12-27T19:15:28.535Z,4.31
2022-12-27T19:18:02.022Z,4.24
2022-12-27T19:20:40.036Z,4.25
2022-12-27T19:23:37.138Z,4.16
2022-12-27T19:26:35.880Z,4.19
2022-12-27T19:29:17.536Z,4.15
2022-12-27T19:31:59.272Z,3.99
2022-12-27T19:34:30.148Z,3.99
2022-12-27T19:36:58.847Z,3.93
2022-12-27T19:39:30.152Z,3.96
2022-12-27T19:42:01.202Z,3.79
2022-12-27T19:44:31.431Z,3.71
2022-12-27T19:46:59.349Z,3.66
2022-12-27T19:49:45.429Z,3.62
2022-12-27T19:52:18.997Z,3.58
2022-12-27T19:54:47.669Z,3.51
2022-12-27T19:57:15.597Z,3.46
2022-12-27T19:59:45.324Z,3.46
2022-12-27T20:02:14.975Z,3.44
2022-12-27T20:04:43.055Z,3.44
2022-12-27T20:07:19.941Z,3.37
2022-12-27T20:09:48.124Z,3.38
2022-12-27T20:12:17.982Z,3.38
2022-12-27T20:14:47.651Z,3.32
2022-12-27T20:17:16.754Z,3.26
2022-12-27T20:19:44.975Z,3.21
2022-12-27T20:22:13.396Z,3.18
2022-12-27T20:24:41.462Z,3.15
2022-12-27T20:27:09.584Z,3.13
2022-12-27T20:29:39.396Z,3.09
2022-12-27T20:32:16.729Z,3.09
2022-12-27T20:34:50.864Z,3.11
2022-12-27T20:37:24.345Z,3.16
2022-12-27T20:40:46.380Z,3.11
2022-12-27T20:43:18.835Z,3.15
2022-12-27T20:45:47.267Z,3.14
2022-12-27T20:48:17.139Z,3.16
2022-12-27T20:50:45.637Z,3.26
2022-12-27T20:53:15.629Z,3.10
2022-12-27T20:55:47.013Z,3.09
2022-12-27T20:58:17.581Z,3.10
2022-12-27T21:00:49.950Z,3.11
2022-12-27T21:03:24.965Z,3.07
2022-12-27T21:05:53.486Z,2.95
2022-12-27T21:08:22.974Z,2.95
2022-12-27T21:10:52.927Z,2.97
2022-12-27T21:13:21.525Z,2.96
2022-12-27T21:15:55.049Z,2.97
2022-12-27T21:18:41.726Z,2.98
2022-12-27T21:21:19.747Z,2.95
2022-12-27T21:23:52.636Z,2.91
2022-12-27T21:26:27.288Z,2.98
2022-12-27T21:29:08.208Z,2.89
2022-12-27T21:31:49.894Z,2.85
2022-12-27T21:34:28.195Z,2.86
2022-12-27T21:37:14.197Z,2.87
2022-12-27T21:39:50.841Z,2.91
2022-12-27T21:42:30.565Z,2.89
2022-12-27T21:45:18.228Z,2.94
2022-12-27T21:48:36.140Z,2.93
2022-12-27T21:50:48.841Z,2.93
2022-12-27T21:53:31.737Z,2.90
2022-12-27T21:56:16.884Z,2.87
2022-12-27T21:58:57.944Z,2.92
2022-12-27T22:01:29.210Z,2.94
2022-12-27T22:04:00.698Z,2.94
2022-12-27T22:06:44.936Z,2.96
2022-12-27T22:09:19.428Z,2.94
2022-12-27T22:11:50.355Z,3.01
2022-12-27T22:14:25.584Z,3.03
2022-12-27T22:16:56.414Z,2.99
2022-12-27T22:19:37.849Z,2.98
2022-12-27T22:22:07.599Z,3.03
2022-12-27T22:24:45.078Z,3.03
2022-12-27T22:27:15.894Z,3.08
2022-12-27T22:30:02.393Z,3.12
2022-12-27T22:32:34.891Z,3.14
2022-12-27T22:35:03.834Z,3.12
2022-12-27T22:37:33.859Z,3.10
2022-12-27T22:40:03.652Z,3.12
2022-12-27T22:42:32.976Z,3.11
2022-12-27T22:45:02.013Z,3.11
2022-12-27T22:47:38.374Z,3.10
2022-12-27T22:50:09.178Z,3.11
2022-12-27T22:52:42.322Z,3.14
2022-12-27T22:55:15.261Z,3.11
2022-12-27T22:57:46.853Z,3.13
2022-12-27T23:00:16.173Z,3.10
2022-12-27T23:02:59.650Z,3.12
2022-12-27T23:05:33.352Z,3.07
2022-12-27T23:08:07.035Z,3.04
2022-12-27T23:10:40.060Z,3.10
2022-12-27T23:13:10.601Z,3.07
2022-12-27T23:15:39.949Z,3.07
2022-12-27T23:18:10.246Z,3.05
2022-12-27T23:21:21.118Z,3.17
2022-12-27T23:23:39.771Z,3.13
2022-12-27T23:26:13.422Z,3.14
2022-12-27T23:28:45.655Z,3.16
2022-12-27T23:31:16.752Z,3.16
2022-12-27T23:33:45.498Z,3.22
2022-12-27T23:36:21.843Z,3.27
2022-12-27T23:38:53.429Z,3.30
2022-12-27T23:41:24.820Z,3.31
2022-12-27T23:43:56.416Z,3.28
2022-12-27T23:46:30.111Z,3.27
2022-12-27T23:49:02.195Z,3.36
2022-12-27T23:51:33.621Z,3.38
2022-12-27T23:54:06.468Z,3.32
2022-12-27T23:56:35.758Z,3.33
2022-12-27T23:59:04.721Z,3.38
